• Join FlightAware (Why Join?)
  • Login
  • US Flag 
08:35PM EDT


 

Airport Tracker/Info


-or-


 

Live Flight TrackerFlight Track Log ✈ UAL6148 ✈ 15-Nov-2013 ✈ KLNK - KDEN

Flight Track Log - Related Links

Times and Time Zones

All times are in EST time to prevent confusion due to time zone crossing. See the UAL6148 flight status page for this flight to view local times or setup timezone preferences in your user account.

Time Position Orientation Groundspeed Altitude Reporting Facility
EST Latitude Longitude Course Direction KTS MPH feet Rate Location/Type
08:49PM 40.8158 -96.7567 257° West 154 177 1,900  Level Minneapolis Center
08:50PM 40.8072 -96.7814 245° Southwest 170 196 3,400 2,400 Climbing Minneapolis Center
08:51PM 40.7906 -96.8433 250° West 178 205 5,900 2,280 Climbing Minneapolis Center
08:52PM 40.8189 -97.1116 253° West  Level Estimated
08:52PM 40.7833 -96.9275 264° West 221 254 8,200  Level Minneapolis Center
08:53PM 40.8096 -97.2292 264° West  Level FlightAware Approximate
08:53PM 40.7731 -97.0175 261° West 239 275 10,700  Level Minneapolis Center
08:54PM 40.7985 -97.3466 257° West  Level Estimated
08:54PM 40.7600 -97.1281 261° West 293 337 12,100  Level Minneapolis Center
08:55PM 40.7791 -97.4620 257° West  Level FlightAware Approximate
08:55PM 40.7478 -97.2450 262° West 316 364 13,900  Level Minneapolis Center
08:56PM 40.7319 -97.3783 261° West 331 381 15,800 1,860 Climbing Minneapolis Center
08:57PM 40.7167 -97.5028 261° West 340 391 17,800 1,980 Climbing Minneapolis Center
08:58PM 40.7025 -97.6267 261° West 341 392 19,900 2,160 Climbing Minneapolis Center
08:59PM 40.6853 -97.7744 261° West 340 391 22,300 2,040 Climbing Minneapolis Center
09:00PM 40.6703 -97.8956 261° West 337 388 24,200 1,860 Climbing Minneapolis Center
09:01PM 40.6561 -98.0161 261° West 334 384 26,200 1,920 Climbing Minneapolis Center
09:02PM 40.6419 -98.1333 261° West 327 376 28,200 1,860 Climbing Minneapolis Center
09:03PM 40.6272 -98.2461 260° West 318 366 30,100 1,800 Climbing Minneapolis Center
09:05PM 40.6142 -98.3547 261° West 305 351 32,000 1,740 Climbing Minneapolis Center
09:06PM 40.6047 -98.4594 263° West 294 338 33,700 960 Climbing Minneapolis Center
09:07PM 40.6167 -98.5694 278° West 301 346 34,000 120 Climbing Minneapolis Center
09:08PM 40.6311 -98.7161 277° West 325 374 34,000  Level Minneapolis Center
09:09PM 40.6417 -98.8475 276° West 348 400 34,000  Level Minneapolis Center
09:10PM 40.6533 -98.9786 277° West 356 410 34,000  Level Minneapolis Center
09:11PM 40.6658 -99.1094 277° West 357 411 34,000  Level Minneapolis Center
09:12PM 40.6758 -99.2417 276° West 360 414 34,000  Level Minneapolis Center
09:13PM 40.6872 -99.3728 277° West 359 413 34,000  Level Minneapolis Center
09:14PM 40.6981 -99.5036 276° West 358 412 34,000  Level Minneapolis Center
09:15PM 40.7108 -99.6611 276° West 360 414 34,000  Level Minneapolis Center
09:16PM 40.7219 -99.7950 276° West 364 419 34,000  Level Minneapolis Center
09:17PM 40.7328 -99.9308 276° West 369 425 34,000  Level Minneapolis Center
09:18PM 40.7428 -100.0667 276° West 371 427 34,000  Level Minneapolis Center
09:19PM 40.7533 -100.2044 276° West 374 430 34,000  Level Minneapolis Center
09:20PM 40.7644 -100.3417 276° West 376 433 34,000  Level Minneapolis Center
09:21PM 40.7758 -100.4814 276° West 378 435 34,000  Level Minneapolis Center
09:22PM 40.7658 -100.6456 265° West 378 435 34,000  Level Minneapolis Center
09:24PM 40.7289 -100.8275 255° West 377 434 34,000  Level Denver Center
09:25PM 40.7042 -100.9794 258° West 376 433 34,000  Level Denver Center
09:26PM 40.6833 -101.1100 258° West 379 436 34,000  Level Denver Center
09:27PM 40.6578 -101.2631 258° West 382 440 34,000  Level Denver Center
09:28PM 40.6361 -101.3933 258° West 382 440 34,000  Level Denver Center
09:29PM 40.6111 -101.5472 258° West 385 443 34,000  Level Denver Center
09:30PM 40.5886 -101.6792 257° West 386 444 34,000  Level Denver Center
09:31PM 40.5667 -101.8089 257° West 381 438 34,000  Level Denver Center
09:32PM 40.5406 -101.9625 257° West 386 444 34,000  Level Denver Center
09:33PM 40.5175 -102.0933 257° West 385 443 34,000  Level Denver Center
09:34PM 40.4886 -102.2700 258° West 389 448 34,000  Level Denver Center
09:35PM 40.4611 -102.4231 257° West 386 444 34,000  Level Denver Center
09:36PM 40.4386 -102.5539 257° West 385 443 34,000  Level Denver Center
09:37PM 40.4147 -102.6797 256° West 379 436 34,000  Level Denver Center
09:38PM 40.3878 -102.8417 258° West 379 436 34,000 -960 Level Denver Center
09:39PM 40.3642 -102.9756 257° West 378 435 32,100 -1,860 Descending Denver Center
09:41PM 40.3389 -103.1131 256° West 385 443 29,800 -2,160 Descending Denver Center
09:42PM 40.3092 -103.2758 257° West 384 442 27,200 -2,400 Descending Denver Center
09:43PM 40.2858 -103.4056 257° West 373 429 24,900 -2,100 Descending Denver Center
09:44PM 40.2625 -103.5272 256° West 355 409 22,900 -1,800 Descending Denver Center
09:45PM 40.2372 -103.6661 257° West 332 382 21,200 -2,100 Descending Denver Center
09:46PM 40.2158 -103.7672 255° West 297 342 18,600 -2,760 Descending Denver Center
09:47PM 40.1950 -103.8778 256° West 313 360 15,600 -2,580 Descending Denver Center
09:48PM 40.1742 -103.9967 257° West 314 361 13,300 -1,260 Descending Denver Center
09:49PM 40.1428 -104.0953 247° West 301 346 13,000 -180 Descending Denver Center
09:50PM 40.0936 -104.1994 238° Southwest 312 359 13,000  Level Denver Center
09:51PM 40.0489 -104.2953 239° Southwest 312 359 13,000  Level Denver Center
09:52PM 40.0036 -104.3925 239° Southwest 314 361 13,000 -60 Level Denver Center
09:53PM 39.9667 -104.4667 237° Southwest 311 358 12,900 -1,140 Descending Denver TRACON
09:54PM 39.9167 -104.5167 217° Southwest 306 352 11,200 -960 Descending Denver TRACON
09:55PM 39.8333 -104.5000 171° South 256 295 11,000 -600 Descending Denver TRACON
09:56PM 39.7667 -104.5000 180° South 254 292 10,100 -1,080 Descending Denver TRACON
09:56PM 39.7325 -104.5000 180° South 249 287 9,400 -1,260 Descending Denver Center
09:57PM 39.7031 -104.5550 235° Southwest 217 250 8,200 -960 Descending Denver Center
09:58PM 39.7139 -104.6300 281° West 194 223 7,500 -840 Descending Denver Center
09:59PM 39.7756 -104.6419 352° North 207 238 6,500 -960 Descending Denver Center
10:00PM 39.8211 -104.6417 360° North 167 192 5,600 -600 Descending Denver Center
10:01PM 39.8494 -104.6417 360° North 128 147 5,300 -300 Descending Denver Center